sensor_id;sensor_type;location;lat;lon;timestamp;pressure;altitude;pressure_sealevel;temperature;humidity
58467;BME280;44255;49.244;7.726;2022-08-20T03:31:15;98352.06;;;18.00;63.80
58467;BME280;44255;49.244;7.726;2022-08-20T03:33:41;98343.16;;;17.88;64.16
58467;BME280;44255;49.244;7.726;2022-08-20T03:36:06;98348.84;;;17.85;64.35
58467;BME280;44255;49.244;7.726;2022-08-20T03:38:32;98353.06;;;17.99;63.89
58467;BME280;44255;49.244;7.726;2022-08-20T03:40:57;98351.28;;;17.03;67.78
58467;BME280;44255;49.244;7.726;2022-08-20T03:43:23;98344.31;;;17.64;65.53
58467;BME280;44255;49.244;7.726;2022-08-20T03:45:48;98350.22;;;17.69;65.05
58467;BME280;44255;49.244;7.726;2022-08-20T03:48:17;98348.28;;;17.81;64.89
58467;BME280;44255;49.244;7.726;2022-08-20T03:50:43;98345.28;;;17.84;64.78
58467;BME280;44255;49.244;7.726;2022-08-20T03:53:11;98342.78;;;17.71;65.07
58467;BME280;44255;49.244;7.726;2022-08-20T03:55:37;98344.03;;;17.67;65.45
58467;BME280;44255;49.244;7.726;2022-08-20T03:58:05;98348.66;;;17.77;65.29
58467;BME280;44255;49.244;7.726;2022-08-20T04:03:00;98344.19;;;17.66;65.75
58467;BME280;44255;49.244;7.726;2022-08-20T04:05:27;98346.63;;;17.69;65.58
58467;BME280;44255;49.244;7.726;2022-08-20T04:07:55;98353.81;;;17.80;65.15
58467;BME280;44255;49.244;7.726;2022-08-20T04:10:20;98357.88;;;17.64;65.47
58467;BME280;44255;49.244;7.726;2022-08-20T04:12:45;98352.72;;;17.61;66.06
58467;BME280;44255;49.244;7.726;2022-08-20T04:15:13;98352.16;;;17.67;66.01
58467;BME280;44255;49.244;7.726;2022-08-20T04:17:41;98350.94;;;17.71;65.91
58467;BME280;44255;49.244;7.726;2022-08-20T04:20:09;98352.94;;;17.15;68.63
58467;BME280;44255;49.244;7.726;2022-08-20T04:22:35;98353.41;;;16.67;72.31
58467;BME280;44255;49.244;7.726;2022-08-20T04:25:02;98351.88;;;16.74;72.83
58467;BME280;44255;49.244;7.726;2022-08-20T04:27:28;98357.94;;;16.99;71.60
58467;BME280;44255;49.244;7.726;2022-08-20T04:29:57;98355.97;;;17.01;71.89
58467;BME280;44255;49.244;7.726;2022-08-20T04:32:22;98361.09;;;16.71;72.15
58467;BME280;44255;49.244;7.726;2022-08-20T04:34:48;98358.00;;;16.87;72.42
58467;BME280;44255;49.244;7.726;2022-08-20T04:37:18;98358.78;;;16.55;73.98
58467;BME280;44255;49.244;7.726;2022-08-20T04:39:45;98377.78;;;16.99;72.39
58467;BME280;44255;49.244;7.726;2022-08-20T04:42:30;98375.25;;;16.86;72.54
58467;BME280;44255;49.244;7.726;2022-08-20T04:44:55;98378.50;;;17.01;71.84
58467;BME280;44255;49.244;7.726;2022-08-20T04:47:20;98376.50;;;16.71;73.68
58467;BME280;44255;49.244;7.726;2022-08-20T04:49:46;98379.31;;;16.81;72.99
58467;BME280;44255;49.244;7.726;2022-08-20T04:52:11;98374.59;;;16.94;72.48
58467;BME280;44255;49.244;7.726;2022-08-20T04:54:36;98366.13;;;17.41;70.43
58467;BME280;44255;49.244;7.726;2022-08-20T04:57:02;98375.53;;;17.05;71.65
58467;BME280;44255;49.244;7.726;2022-08-20T04:59:27;98375.16;;;16.77;73.72
58467;BME280;44255;49.244;7.726;2022-08-20T05:01:52;98385.28;;;16.40;75.40
58467;BME280;44255;49.244;7.726;2022-08-20T05:04:18;98370.44;;;17.11;72.07
58467;BME280;44255;49.244;7.726;2022-08-20T05:06:43;98382.75;;;16.83;73.22
58467;BME280;44255;49.244;7.726;2022-08-20T05:09:09;98382.63;;;16.84;73.71
58467;BME280;44255;49.244;7.726;2022-08-20T05:11:34;98376.50;;;16.71;74.90
58467;BME280;44255;49.244;7.726;2022-08-20T05:14:00;98386.59;;;16.46;75.77
58467;BME280;44255;49.244;7.726;2022-08-20T05:16:25;98376.38;;;16.61;75.43
58467;BME280;44255;49.244;7.726;2022-08-20T05:18:50;98386.97;;;16.64;75.24
58467;BME280;44255;49.244;7.726;2022-08-20T05:21:16;98376.44;;;17.26;72.62
58467;BME280;44255;49.244;7.726;2022-08-20T05:23:42;98381.84;;;16.94;74.04
58467;BME280;44255;49.244;7.726;2022-08-20T05:26:10;98380.22;;;17.02;73.16
58467;BME280;44255;49.244;7.726;2022-08-20T05:28:38;98384.53;;;17.05;72.82
58467;BME280;44255;49.244;7.726;2022-08-20T05:31:05;98393.75;;;17.02;73.50
58467;BME280;44255;49.244;7.726;2022-08-20T05:33:34;98395.03;;;16.98;74.18
58467;BME280;44255;49.244;7.726;2022-08-20T05:35:59;98395.94;;;16.76;75.24
58467;BME280;44255;49.244;7.726;2022-08-20T05:38:27;98397.84;;;17.29;72.93
58467;BME280;44255;49.244;7.726;2022-08-20T05:40:53;98397.19;;;17.05;73.97
58467;BME280;44255;49.244;7.726;2022-08-20T05:43:19;98400.75;;;17.38;72.47
58467;BME280;44255;49.244;7.726;2022-08-20T05:45:46;98407.13;;;16.83;75.60
58467;BME280;44255;49.244;7.726;2022-08-20T05:48:19;98412.00;;;17.00;74.25
58467;BME280;44255;49.244;7.726;2022-08-20T05:50:47;98405.84;;;17.31;73.86
58467;BME280;44255;49.244;7.726;2022-08-20T05:53:17;98402.66;;;17.26;73.78
58467;BME280;44255;49.244;7.726;2022-08-20T05:55:42;98416.44;;;16.90;75.68
58467;BME280;44255;49.244;7.726;2022-08-20T05:58:16;98421.41;;;16.85;76.03
58467;BME280;44255;49.244;7.726;2022-08-20T06:00:43;98415.28;;;17.48;73.35
58467;BME280;44255;49.244;7.726;2022-08-20T06:03:08;98407.47;;;17.01;75.66
58467;BME280;44255;49.244;7.726;2022-08-20T06:05:52;98431.88;;;17.22;74.28
58467;BME280;44255;49.244;7.726;2022-08-20T06:08:17;98414.16;;;17.18;75.11
58467;BME280;44255;49.244;7.726;2022-08-20T06:10:43;98423.41;;;16.60;78.87
58467;BME280;44255;49.244;7.726;2022-08-20T06:13:08;98421.06;;;16.44;79.82
58467;BME280;44255;49.244;7.726;2022-08-20T06:15:34;98428.94;;;16.70;79.16
58467;BME280;44255;49.244;7.726;2022-08-20T06:17:59;98429.06;;;16.68;79.63
58467;BME280;44255;49.244;7.726;2022-08-20T06:20:25;98435.69;;;16.64;79.69
58467;BME280;44255;49.244;7.726;2022-08-20T06:22:50;98419.69;;;16.72;80.16
58467;BME280;44255;49.244;7.726;2022-08-20T06:25:15;98432.03;;;16.65;80.80
58467;BME280;44255;49.244;7.726;2022-08-20T06:27:42;98430.66;;;16.48;81.27
58467;BME280;44255;49.244;7.726;2022-08-20T06:30:08;98440.13;;;16.54;81.29
58467;BME280;44255;49.244;7.726;2022-08-20T06:32:34;98434.97;;;16.62;81.48
58467;BME280;44255;49.244;7.726;2022-08-20T06:35:00;98435.31;;;16.57;81.23
58467;BME280;44255;49.244;7.726;2022-08-20T06:37:27;98439.75;;;16.58;82.09
58467;BME280;44255;49.244;7.726;2022-08-20T06:39:53;98431.75;;;16.80;81.13
58467;BME280;44255;49.244;7.726;2022-08-20T06:42:19;98446.91;;;16.37;83.77
58467;BME280;44255;49.244;7.726;2022-08-20T06:44:46;98433.94;;;16.97;80.59
58467;BME280;44255;49.244;7.726;2022-08-20T06:47:13;98438.19;;;17.11;79.65
58467;BME280;44255;49.244;7.726;2022-08-20T06:49:39;98441.50;;;16.25;85.94
58467;BME280;44255;49.244;7.726;2022-08-20T06:52:04;98439.91;;;16.68;83.54
58467;BME280;44255;49.244;7.726;2022-08-20T06:54:30;98432.41;;;17.05;81.72
58467;BME280;44255;49.244;7.726;2022-08-20T06:56:55;98434.88;;;17.08;80.96
58467;BME280;44255;49.244;7.726;2022-08-20T06:59:20;98433.56;;;16.91;82.77
58467;BME280;44255;49.244;7.726;2022-08-20T07:01:46;98436.53;;;16.87;82.10
58467;BME280;44255;49.244;7.726;2022-08-20T07:04:13;98441.38;;;16.61;83.43
58467;BME280;44255;49.244;7.726;2022-08-20T07:06:39;98431.97;;;16.88;83.49
58467;BME280;44255;49.244;7.726;2022-08-20T07:09:05;98430.13;;;17.33;81.99
58467;BME280;44255;49.244;7.726;2022-08-20T07:11:30;98440.88;;;17.23;81.01
58467;BME280;44255;49.244;7.726;2022-08-20T07:13:56;98437.78;;;17.27;80.42
58467;BME280;44255;49.244;7.726;2022-08-20T07:16:22;98432.69;;;17.01;81.95
58467;BME280;44255;49.244;7.726;2022-08-20T07:18:47;98438.91;;;16.81;83.19
58467;BME280;44255;49.244;7.726;2022-08-20T07:21:12;98440.44;;;17.06;81.89
58467;BME280;44255;49.244;7.726;2022-08-20T07:23:38;98446.56;;;17.41;81.11
58467;BME280;44255;49.244;7.726;2022-08-20T07:26:03;98445.91;;;17.27;80.19
58467;BME280;44255;49.244;7.726;2022-08-20T07:28:29;98457.22;;;17.00;82.75
58467;BME280;44255;49.244;7.726;2022-08-20T07:30:56;98450.81;;;16.90;83.23
58467;BME280;44255;49.244;7.726;2022-08-20T07:33:40;98449.69;;;17.36;79.88
58467;BME280;44255;49.244;7.726;2022-08-20T07:36:05;98447.94;;;17.14;80.67
58467;BME280;44255;49.244;7.726;2022-08-20T07:38:32;98454.66;;;17.64;79.48
58467;BME280;44255;49.244;7.726;2022-08-20T07:41:03;98467.38;;;17.08;81.31
58467;BME280;44255;49.244;7.726;2022-08-20T07:43:30;98458.34;;;17.63;78.66
58467;BME280;44255;49.244;7.726;2022-08-20T07:45:58;98472.06;;;17.06;82.48
58467;BME280;44255;49.244;7.726;2022-08-20T07:48:34;98468.75;;;17.46;79.15
58467;BME280;44255;49.244;7.726;2022-08-20T07:51:02;98468.97;;;17.54;78.53
58467;BME280;44255;49.244;7.726;2022-08-20T07:53:29;98465.69;;;17.93;77.56
58467;BME280;44255;49.244;7.726;2022-08-20T07:55:54;98474.03;;;17.59;78.20
58467;BME280;44255;49.244;7.726;2022-08-20T07:58:20;98465.78;;;17.61;78.36
58467;BME280;44255;49.244;7.726;2022-08-20T08:00:48;98466.03;;;17.79;78.78
58467;BME280;44255;49.244;7.726;2022-08-20T08:03:14;98458.34;;;17.63;78.97
58467;BME280;44255;49.244;7.726;2022-08-20T08:05:41;98463.91;;;17.82;77.12
58467;BME280;44255;49.244;7.726;2022-08-20T08:08:09;98463.09;;;17.92;76.39
58467;BME280;44255;49.244;7.726;2022-08-20T08:10:36;98470.84;;;17.42;77.10
58467;BME280;44255;49.244;7.726;2022-08-20T08:13:04;98464.50;;;17.65;78.28
58467;BME280;44255;49.244;7.726;2022-08-20T08:15:32;98469.94;;;17.86;74.93
58467;BME280;44255;49.244;7.726;2022-08-20T08:18:01;98475.19;;;17.34;77.49
58467;BME280;44255;49.244;7.726;2022-08-20T08:20:30;98469.22;;;17.63;77.25
58467;BME280;44255;49.244;7.726;2022-08-20T08:22:55;98472.19;;;18.02;74.65
58467;BME280;44255;49.244;7.726;2022-08-20T08:25:21;98470.84;;;17.96;75.43
58467;BME280;44255;49.244;7.726;2022-08-20T08:27:46;98470.19;;;18.04;74.26
58467;BME280;44255;49.244;7.726;2022-08-20T08:30:14;98478.13;;;18.17;73.08
58467;BME280;44255;49.244;7.726;2022-08-20T08:32:39;98471.63;;;18.08;72.46
58467;BME280;44255;49.244;7.726;2022-08-20T08:35:24;98468.84;;;18.41;69.63
58467;BME280;44255;49.244;7.726;2022-08-20T08:37:49;98469.81;;;18.30;66.24
58467;BME280;44255;49.244;7.726;2022-08-20T08:40:15;98472.88;;;18.25;67.88
58467;BME280;44255;49.244;7.726;2022-08-20T08:42:43;98466.81;;;18.64;67.91
58467;BME280;44255;49.244;7.726;2022-08-20T08:45:11;98472.97;;;18.35;67.84
58467;BME280;44255;49.244;7.726;2022-08-20T08:47:39;98473.50;;;18.60;66.48
58467;BME280;44255;49.244;7.726;2022-08-20T08:50:09;98481.84;;;18.37;66.45
58467;BME280;44255;49.244;7.726;2022-08-20T08:52:39;98471.88;;;18.89;65.34
58467;BME280;44255;49.244;7.726;2022-08-20T08:55:13;98489.25;;;18.66;64.41
58467;BME280;44255;49.244;7.726;2022-08-20T08:57:40;98479.78;;;18.61;64.74
58467;BME280;44255;49.244;7.726;2022-08-20T09:00:12;98481.09;;;18.66;63.09
58467;BME280;44255;49.244;7.726;2022-08-20T09:03:07;98481.97;;;19.08;62.35
58467;BME280;44255;49.244;7.726;2022-08-20T09:05:41;98485.63;;;18.56;62.32
58467;BME280;44255;49.244;7.726;2022-08-20T09:08:11;98485.50;;;18.26;63.05
58467;BME280;44255;49.244;7.726;2022-08-20T09:10:37;98492.34;;;18.52;61.87
58467;BME280;44255;49.244;7.726;2022-08-20T09:13:04;98489.59;;;18.83;61.84
58467;BME280;44255;49.244;7.726;2022-08-20T09:15:29;98486.34;;;18.27;62.55
58467;BME280;44255;49.244;7.726;2022-08-20T09:17:55;98483.88;;;18.24;63.07
58467;BME280;44255;49.244;7.726;2022-08-20T09:20:20;98478.34;;;18.56;61.92
58467;BME280;44255;49.244;7.726;2022-08-20T09:22:45;98479.53;;;18.73;60.83
58467;BME280;44255;49.244;7.726;2022-08-20T09:25:11;98474.75;;;18.56;61.50
58467;BME280;44255;49.244;7.726;2022-08-20T09:27:36;98469.59;;;18.84;60.88
58467;BME280;44255;49.244;7.726;2022-08-20T09:30:02;98474.13;;;18.73;60.46
58467;BME280;44255;49.244;7.726;2022-08-20T09:32:28;98463.25;;;18.73;59.71
58467;BME280;44255;49.244;7.726;2022-08-20T09:34:54;98458.78;;;19.04;58.74
58467;BME280;44255;49.244;7.726;2022-08-20T09:37:21;98469.72;;;18.92;58.63
58467;BME280;44255;49.244;7.726;2022-08-20T09:39:47;98466.78;;;19.05;58.73
58467;BME280;44255;49.244;7.726;2022-08-20T09:42:19;98464.25;;;19.23;57.91
58467;BME280;44255;49.244;7.726;2022-08-20T09:44:46;98460.94;;;19.20;57.56
58467;BME280;44255;49.244;7.726;2022-08-20T09:47:12;98458.03;;;18.92;57.90
58467;BME280;44255;49.244;7.726;2022-08-20T09:49:37;98448.16;;;19.00;57.64
58467;BME280;44255;49.244;7.726;2022-08-20T09:52:05;98442.66;;;19.41;55.63
58467;BME280;44255;49.244;7.726;2022-08-20T09:54:32;98444.50;;;19.51;55.98
58467;BME280;44255;49.244;7.726;2022-08-20T09:57:03;98440.03;;;19.89;54.99
58467;BME280;44255;49.244;7.726;2022-08-20T09:59:30;98440.50;;;19.84;54.30
58467;BME280;44255;49.244;7.726;2022-08-20T10:01:56;98446.22;;;19.62;54.09
58467;BME280;44255;49.244;7.726;2022-08-20T10:04:22;98440.34;;;19.86;53.00
58467;BME280;44255;49.244;7.726;2022-08-20T10:06:47;98432.28;;;20.04;52.18
58467;BME280;44255;49.244;7.726;2022-08-20T10:09:12;98433.09;;;20.62;51.44
58467;BME280;44255;49.244;7.726;2022-08-20T10:11:38;98437.25;;;20.19;50.26
58467;BME280;44255;49.244;7.726;2022-08-20T10:14:03;98431.47;;;20.32;50.06
58467;BME280;44255;49.244;7.726;2022-08-20T10:16:29;98436.44;;;20.08;50.44
58467;BME280;44255;49.244;7.726;2022-08-20T10:18:55;98432.84;;;20.46;49.50
58467;BME280;44255;49.244;7.726;2022-08-20T10:21:20;98413.69;;;20.37;48.93
58467;BME280;44255;49.244;7.726;2022-08-20T10:23:46;98423.38;;;20.60;48.72
58467;BME280;44255;49.244;7.726;2022-08-20T10:26:12;98420.91;;;20.56;48.13
58467;BME280;44255;49.244;7.726;2022-08-20T10:28:38;98419.38;;;20.54;47.76
58467;BME280;44255;49.244;7.726;2022-08-20T10:31:08;98424.91;;;20.62;48.00
58467;BME280;44255;49.244;7.726;2022-08-20T10:33:34;98416.16;;;20.87;46.48
58467;BME280;44255;49.244;7.726;2022-08-20T10:36:14;98418.44;;;20.63;46.99
58467;BME280;44255;49.244;7.726;2022-08-20T10:38:41;98413.72;;;21.11;45.98
58467;BME280;44255;49.244;7.726;2022-08-20T10:41:07;98399.94;;;21.76;45.26
58467;BME280;44255;49.244;7.726;2022-08-20T10:43:32;98422.72;;;21.40;44.31
58467;BME280;44255;49.244;7.726;2022-08-20T10:45:58;98404.53;;;21.12;44.73
58467;BME280;44255;49.244;7.726;2022-08-20T10:48:23;98417.50;;;20.82;45.03
58467;BME280;44255;49.244;7.726;2022-08-20T10:50:49;98401.38;;;21.07;44.51
58467;BME280;44255;49.244;7.726;2022-08-20T10:53:15;98402.75;;;21.58;44.26
58467;BME280;44255;49.244;7.726;2022-08-20T10:55:41;98410.69;;;21.33;43.26
58467;BME280;44255;49.244;7.726;2022-08-20T10:58:07;98405.59;;;21.74;42.30
58467;BME280;44255;49.244;7.726;2022-08-20T11:00:32;98399.00;;;21.40;41.76
58467;BME280;44255;49.244;7.726;2022-08-20T11:02:58;98407.34;;;21.39;42.89
58467;BME280;44255;49.244;7.726;2022-08-20T11:05:23;98408.53;;;21.54;41.00
58467;BME280;44255;49.244;7.726;2022-08-20T11:07:49;98403.16;;;21.89;40.65
58467;BME280;44255;49.244;7.726;2022-08-20T11:10:14;98400.69;;;22.31;39.47
58467;BME280;44255;49.244;7.726;2022-08-20T11:12:39;98395.53;;;22.01;39.85
58467;BME280;44255;49.244;7.726;2022-08-20T11:15:05;98404.94;;;21.80;40.10
58467;BME280;44255;49.244;7.726;2022-08-20T11:17:33;98391.63;;;21.77;41.40
58467;BME280;44255;49.244;7.726;2022-08-20T11:19:59;98388.53;;;22.60;40.24
58467;BME280;44255;49.244;7.726;2022-08-20T11:22:26;98386.56;;;22.44;40.61
58467;BME280;44255;49.244;7.726;2022-08-20T11:24:52;98394.28;;;21.69;40.50
58467;BME280;44255;49.244;7.726;2022-08-20T11:27:25;98383.16;;;22.50;39.99
58467;BME280;44255;49.244;7.726;2022-08-20T11:29:51;98387.91;;;22.39;38.71
58467;BME280;44255;49.244;7.726;2022-08-20T11:32:17;98391.34;;;22.42;37.04
58467;BME280;44255;49.244;7.726;2022-08-20T11:34:42;98388.59;;;22.07;34.97
58467;BME280;44255;49.244;7.726;2022-08-20T11:37:07;98392.47;;;22.65;35.41
58467;BME280;44255;49.244;7.726;2022-08-20T11:39:33;98389.34;;;23.03;34.50
58467;BME280;44255;49.244;7.726;2022-08-20T11:41:58;98390.53;;;23.09;34.03
58467;BME280;44255;49.244;7.726;2022-08-20T11:44:23;98382.53;;;23.49;32.55
58467;BME280;44255;49.244;7.726;2022-08-20T11:46:49;98390.81;;;22.89;32.68
58467;BME280;44255;49.244;7.726;2022-08-20T11:49:14;98381.03;;;23.46;32.22
58467;BME280;44255;49.244;7.726;2022-08-20T11:51:39;98397.78;;;23.27;30.93
58467;BME280;44255;49.244;7.726;2022-08-20T11:54:05;98384.09;;;23.35;29.80
58467;BME280;44255;49.244;7.726;2022-08-20T11:56:30;98394.69;;;23.63;29.22
58467;BME280;44255;49.244;7.726;2022-08-20T11:58:56;98391.94;;;23.71;30.25
58467;BME280;44255;49.244;7.726;2022-08-20T12:01:21;98398.91;;;23.07;30.94
58467;BME280;44255;49.244;7.726;2022-08-20T12:03:46;98392.31;;;23.27;31.53
58467;BME280;44255;49.244;7.726;2022-08-20T12:06:12;98392.41;;;23.00;31.15
58467;BME280;44255;49.244;7.726;2022-08-20T12:08:37;98387.16;;;23.90;30.60
58467;BME280;44255;49.244;7.726;2022-08-20T12:11:02;98383.13;;;24.74;29.46
58467;BME280;44255;49.244;7.726;2022-08-20T12:13:31;98387.13;;;24.63;29.81
58467;BME280;44255;49.244;7.726;2022-08-20T12:15:56;98392.91;;;24.20;29.29
58467;BME280;44255;49.244;7.726;2022-08-20T12:18:22;98394.81;;;24.19;29.53
58467;BME280;44255;49.244;7.726;2022-08-20T12:20:47;98382.22;;;24.42;29.15
58467;BME280;44255;49.244;7.726;2022-08-20T12:23:13;98394.38;;;24.56;28.86
58467;BME280;44255;49.244;7.726;2022-08-20T12:25:39;98378.94;;;24.55;28.96
58467;BME280;44255;49.244;7.726;2022-08-20T12:28:05;98395.97;;;24.33;28.17
58467;BME280;44255;49.244;7.726;2022-08-20T12:30:31;98399.69;;;24.49;28.25
58467;BME280;44255;49.244;7.726;2022-08-20T12:32:57;98380.69;;;24.47;28.78
58467;BME280;44255;49.244;7.726;2022-08-20T12:35:23;98408.47;;;24.76;27.99
58467;BME280;44255;49.244;7.726;2022-08-20T12:37:49;98394.84;;;24.59;28.07
58467;BME280;44255;49.244;7.726;2022-08-20T12:40:20;98385.78;;;25.22;28.24
58467;BME280;44255;49.244;7.726;2022-08-20T12:42:46;98387.09;;;24.94;27.46
58467;BME280;44255;49.244;7.726;2022-08-20T12:45:13;98384.50;;;25.09;27.76
58467;BME280;44255;49.244;7.726;2022-08-20T12:47:41;98392.59;;;24.06;28.56
58467;BME280;44255;49.244;7.726;2022-08-20T12:50:11;98407.31;;;24.14;28.33
58467;BME280;44255;49.244;7.726;2022-08-20T12:52:37;98385.50;;;24.37;27.98
58467;BME280;44255;49.244;7.726;2022-08-20T12:55:03;98400.41;;;24.34;28.71
58467;BME280;44255;49.244;7.726;2022-08-20T12:57:34;98403.84;;;24.28;28.37
58467;BME280;44255;49.244;7.726;2022-08-20T13:00:07;98384.38;;;25.49;27.45
58467;BME280;44255;49.244;7.726;2022-08-20T13:02:33;98387.50;;;25.61;27.76
58467;BME280;44255;49.244;7.726;2022-08-20T13:04:58;98397.97;;;24.39;28.98
58467;BME280;44255;49.244;7.726;2022-08-20T13:07:24;98397.47;;;24.84;28.54
58467;BME280;44255;49.244;7.726;2022-08-20T13:09:49;98377.56;;;25.99;27.79
58467;BME280;44255;49.244;7.726;2022-08-20T13:12:14;98384.13;;;25.36;28.98
58467;BME280;44255;49.244;7.726;2022-08-20T13:14:41;98392.25;;;24.98;29.15
58467;BME280;44255;49.244;7.726;2022-08-20T13:17:07;98391.50;;;24.32;29.85
58467;BME280;44255;49.244;7.726;2022-08-20T13:19:33;98373.91;;;26.36;27.84
58467;BME280;44255;49.244;7.726;2022-08-20T13:21:59;98373.13;;;26.43;27.32
58467;BME280;44255;49.244;7.726;2022-08-20T13:24:24;98374.31;;;25.42;28.57
58467;BME280;44255;49.244;7.726;2022-08-20T13:26:50;98379.75;;;24.63;29.43
58467;BME280;44255;49.244;7.726;2022-08-20T13:29:16;98371.56;;;25.18;28.90
58467;BME280;44255;49.244;7.726;2022-08-20T13:31:42;98374.22;;;25.03;28.53
58467;BME280;44255;49.244;7.726;2022-08-20T13:34:07;98397.78;;;24.89;28.77
58467;BME280;44255;49.244;7.726;2022-08-20T13:36:33;98367.91;;;25.03;28.27
58467;BME280;44255;49.244;7.726;2022-08-20T13:38:59;98374.88;;;24.82;28.61
58467;BME280;44255;49.244;7.726;2022-08-20T13:41:24;98374.88;;;25.75;27.69
58467;BME280;44255;49.244;7.726;2022-08-20T13:43:50;98358.63;;;26.49;27.21
58467;BME280;44255;49.244;7.726;2022-08-20T13:46:15;98358.38;;;25.37;27.37
58467;BME280;44255;49.244;7.726;2022-08-20T13:48:40;98358.22;;;25.77;27.14
58467;BME280;44255;49.244;7.726;2022-08-20T13:51:06;98353.38;;;25.41;27.95
58467;BME280;44255;49.244;7.726;2022-08-20T13:53:31;98350.97;;;26.44;27.16
58467;BME280;44255;49.244;7.726;2022-08-20T13:55:56;98354.91;;;26.57;26.74
58467;BME280;44255;49.244;7.726;2022-08-20T13:58:21;98360.34;;;25.05;26.03
58467;BME280;44255;49.244;7.726;2022-08-20T14:00:47;98357.09;;;25.25;25.74
58467;BME280;44255;49.244;7.726;2022-08-20T14:03:13;98357.88;;;26.40;24.18
58467;BME280;44255;49.244;7.726;2022-08-20T14:05:39;98356.34;;;26.07;24.50
58467;BME280;44255;49.244;7.726;2022-08-20T14:08:13;98350.56;;;25.49;24.59
58467;BME280;44255;49.244;7.726;2022-08-20T14:10:40;98364.69;;;25.61;25.02
58467;BME280;44255;49.244;7.726;2022-08-20T14:13:06;98354.81;;;25.51;24.73
58467;BME280;44255;49.244;7.726;2022-08-20T14:15:32;98355.09;;;25.95;24.78
58467;BME280;44255;49.244;7.726;2022-08-20T14:17:58;98359.09;;;25.92;24.75
58467;BME280;44255;49.244;7.726;2022-08-20T14:20:26;98358.22;;;25.77;25.15
58467;BME280;44255;49.244;7.726;2022-08-20T14:22:52;98359.19;;;25.99;25.33
58467;BME280;44255;49.244;7.726;2022-08-20T14:25:20;98358.91;;;25.56;26.05
58467;BME280;44255;49.244;7.726;2022-08-20T14:27:45;98362.34;;;25.34;27.28
58467;BME280;44255;49.244;7.726;2022-08-20T14:30:19;98368.97;;;25.40;27.61
58467;BME280;44255;49.244;7.726;2022-08-20T14:32:45;98382.78;;;25.00;28.09
58467;BME280;44255;49.244;7.726;2022-08-20T14:35:11;98375.09;;;25.27;27.42
58467;BME280;44255;49.244;7.726;2022-08-20T14:37:39;98367.94;;;25.41;27.49
58467;BME280;44255;49.244;7.726;2022-08-20T14:40:07;98362.13;;;25.59;26.72
58467;BME280;44255;49.244;7.726;2022-08-20T14:42:33;98365.34;;;26.01;26.23
58467;BME280;44255;49.244;7.726;2022-08-20T14:44:58;98362.13;;;24.89;27.87
58467;BME280;44255;49.244;7.726;2022-08-20T14:47:29;98363.72;;;25.77;27.63
58467;BME280;44255;49.244;7.726;2022-08-20T14:49:56;98364.72;;;26.29;27.41
58467;BME280;44255;49.244;7.726;2022-08-20T14:52:25;98361.44;;;24.87;28.32
58467;BME280;44255;49.244;7.726;2022-08-20T14:54:51;98359.34;;;24.98;28.46
58467;BME280;44255;49.244;7.726;2022-08-20T14:57:17;98361.03;;;25.45;28.95
58467;BME280;44255;49.244;7.726;2022-08-20T14:59:44;98374.06;;;24.73;29.30
58467;BME280;44255;49.244;7.726;2022-08-20T15:02:11;98365.84;;;24.65;29.66
58467;BME280;44255;49.244;7.726;2022-08-20T15:04:38;98364.78;;;24.74;29.65
58467;BME280;44255;49.244;7.726;2022-08-20T15:07:05;98372.97;;;24.83;29.55
58467;BME280;44255;49.244;7.726;2022-08-20T15:09:35;98360.63;;;25.10;29.12
58467;BME280;44255;49.244;7.726;2022-08-20T15:12:00;98361.22;;;24.97;29.22
58467;BME280;44255;49.244;7.726;2022-08-20T15:14:26;98347.31;;;25.69;28.64
58467;BME280;44255;49.244;7.726;2022-08-20T15:16:53;98352.50;;;26.32;27.70
58467;BME280;44255;49.244;7.726;2022-08-20T15:19:19;98352.84;;;25.84;28.21
58467;BME280;44255;49.244;7.726;2022-08-20T15:21:45;98357.06;;;26.25;28.04
58467;BME280;44255;49.244;7.726;2022-08-20T15:24:11;98353.16;;;25.04;28.81
58467;BME280;44255;49.244;7.726;2022-08-20T15:26:37;98361.81;;;25.16;28.86
58467;BME280;44255;49.244;7.726;2022-08-20T15:29:02;98355.88;;;25.04;28.63
58467;BME280;44255;49.244;7.726;2022-08-20T15:31:28;98361.00;;;24.35;29.91
58467;BME280;44255;49.244;7.726;2022-08-20T15:33:53;98353.13;;;25.50;29.10
58467;BME280;44255;49.244;7.726;2022-08-20T15:36:18;98363.75;;;25.30;29.43
58467;BME280;44255;49.244;7.726;2022-08-20T15:38:44;98353.28;;;24.79;29.11
58467;BME280;44255;49.244;7.726;2022-08-20T15:41:09;98354.25;;;24.86;29.44
58467;BME280;44255;49.244;7.726;2022-08-20T15:43:34;98353.53;;;25.24;28.67
58467;BME280;44255;49.244;7.726;2022-08-20T15:46:02;98343.47;;;25.16;29.45
58467;BME280;44255;49.244;7.726;2022-08-20T15:48:34;98341.09;;;25.90;28.53
58467;BME280;44255;49.244;7.726;2022-08-20T15:53:42;98346.56;;;25.13;29.10
58467;BME280;44255;49.244;7.726;2022-08-20T15:59:13;98348.69;;;25.03;29.58
58467;BME280;44255;49.244;7.726;2022-08-20T16:07:16;98340.97;;;25.98;28.67
58467;BME280;44255;49.244;7.726;2022-08-20T16:09:51;98353.00;;;24.97;29.81
58467;BME280;44255;49.244;7.726;2022-08-20T16:12:29;98343.78;;;25.36;29.37
58467;BME280;44255;49.244;7.726;2022-08-20T16:14:59;98350.59;;;25.64;29.27
58467;BME280;44255;49.244;7.726;2022-08-20T16:17:36;98346.22;;;26.53;28.68
58467;BME280;44255;49.244;7.726;2022-08-20T16:20:21;98352.53;;;26.54;27.97
58467;BME280;44255;49.244;7.726;2022-08-20T16:22:47;98356.97;;;25.64;28.97
58467;BME280;44255;49.244;7.726;2022-08-20T16:25:14;98349.94;;;24.60;30.37
58467;BME280;44255;49.244;7.726;2022-08-20T16:33:13;98342.97;;;25.74;28.81
58467;BME280;44255;49.244;7.726;2022-08-20T16:38:44;98339.44;;;27.80;26.69
58467;BME280;44255;49.244;7.726;2022-08-20T16:41:30;98339.63;;;27.49;26.57
58467;BME280;44255;49.244;7.726;2022-08-20T16:44:06;98344.16;;;27.35;26.97
58467;BME280;44255;49.244;7.726;2022-08-20T16:46:36;98344.13;;;27.57;26.80
58467;BME280;44255;49.244;7.726;2022-08-20T16:49:10;98344.72;;;26.72;27.69
58467;BME280;44255;49.244;7.726;2022-08-20T16:51:50;98348.53;;;26.86;27.81